createdAt,value
2018-10-11T00:00:22.875Z,99511.27
2018-10-11T00:02:51.419Z,99509.10
2018-10-11T00:05:20.021Z,99517.14
2018-10-11T00:07:48.585Z,99516.38
2018-10-11T00:10:17.220Z,99515.88
2018-10-11T00:12:45.989Z,99518.26
2018-10-11T00:15:14.604Z,99519.44
2018-10-11T00:17:43.289Z,99510.52
2018-10-11T00:20:11.963Z,99515.20
2018-10-11T00:22:40.585Z,99507.78
2018-10-11T00:25:09.267Z,99508.87
2018-10-11T00:27:38.138Z,99510.85
2018-10-11T00:30:06.806Z,99517.95
2018-10-11T00:32:35.413Z,99524.52
2018-10-11T00:35:04.056Z,99520.05
2018-10-11T00:37:32.950Z,99524.13
2018-10-11T00:40:01.717Z,99517.23
2018-10-11T00:42:30.331Z,99515.36
2018-10-11T00:44:59.179Z,99513.74
2018-10-11T00:47:27.779Z,99528.81
2018-10-11T00:49:56.390Z,99514.75
2018-10-11T00:52:25.015Z,99517.80
2018-10-11T00:54:53.656Z,99514.27
2018-10-11T00:57:22.217Z,99516.47
2018-10-11T00:59:50.858Z,99513.42
2018-10-11T01:02:19.511Z,99511.22
2018-10-11T01:04:48.194Z,99519.81
2018-10-11T01:07:16.824Z,99510.06
2018-10-11T01:09:45.457Z,99512.72
2018-10-11T01:12:14.146Z,99510.61
2018-10-11T01:14:42.817Z,99506.37
2018-10-11T01:17:11.530Z,99502.72
2018-10-11T01:19:40.287Z,99499.39
2018-10-11T01:22:09.006Z,99500.95
2018-10-11T01:24:37.670Z,99497.75
2018-10-11T01:27:06.381Z,99500.80
2018-10-11T01:29:35.140Z,99495.00
2018-10-11T01:32:03.729Z,99498.95
2018-10-11T01:34:32.428Z,99492.77
2018-10-11T01:37:01.105Z,99485.25
2018-10-11T01:39:29.705Z,99479.00
2018-10-11T01:41:58.287Z,99474.52
2018-10-11T01:44:27.011Z,99476.22
2018-10-11T01:46:55.655Z,99480.93
2018-10-11T01:49:24.334Z,99484.80
2018-10-11T01:51:53.029Z,99482.51
2018-10-11T01:54:21.637Z,99491.61
2018-10-11T01:56:50.207Z,99483.05
2018-10-11T01:59:18.888Z,99482.87
2018-10-11T02:01:47.521Z,99493.23
2018-10-11T02:04:16.263Z,99494.28
2018-10-11T02:06:44.841Z,99489.19
2018-10-11T02:09:13.503Z,99482.27
2018-10-11T02:11:42.099Z,99433.70
2018-10-11T02:14:10.722Z,99474.03
2018-10-11T02:16:39.300Z,99473.73
2018-10-11T02:19:07.982Z,99472.19
2018-10-11T02:21:36.526Z,99463.06
2018-10-11T02:24:05.211Z,99470.83
2018-10-11T02:26:34.027Z,99467.93
2018-10-11T02:29:02.661Z,99471.42
2018-10-11T02:31:31.233Z,99469.31
2018-10-11T02:33:59.846Z,99277.33
2018-10-11T02:36:28.416Z,99450.58
2018-10-11T02:38:57.012Z,99447.59
2018-10-11T02:41:25.576Z,99456.86
2018-10-11T02:43:54.499Z,99452.89
2018-10-11T02:46:23.044Z,99463.97
2018-10-11T02:48:51.699Z,99460.07
2018-10-11T02:51:20.386Z,99460.27
2018-10-11T02:53:48.974Z,99459.15
2018-10-11T02:56:19.867Z,99455.38
2018-10-11T02:58:59.589Z,99453.27
2018-10-11T03:01:28.257Z,99455.18
2018-10-11T03:04:01.977Z,99458.02
2018-10-11T03:06:31.172Z,99461.20
2018-10-11T03:09:00.307Z,99461.34
2018-10-11T03:11:28.950Z,99446.05
2018-10-11T03:13:57.512Z,99452.39
2018-10-11T03:16:26.201Z,99445.03
2018-10-11T03:18:54.787Z,99438.56
2018-10-11T03:21:23.354Z,99440.02
2018-10-11T03:23:51.953Z,99447.22
2018-10-11T03:26:20.531Z,99446.97
2018-10-11T03:28:49.002Z,99445.84
2018-10-11T03:31:17.770Z,99447.21
2018-10-11T03:33:46.393Z,99447.74
2018-10-11T03:36:14.981Z,99440.00
2018-10-11T03:38:43.554Z,99445.00
2018-10-11T03:41:12.148Z,99453.41
2018-10-11T03:43:40.711Z,99459.55
2018-10-11T03:46:09.338Z,99465.31
2018-10-11T03:48:37.903Z,99465.31
2018-10-11T03:51:06.771Z,99459.63
2018-10-11T03:53:35.380Z,99462.33
2018-10-11T03:56:04.075Z,99460.61
2018-10-11T03:58:33.083Z,99462.52
2018-10-11T04:01:02.246Z,99461.77
2018-10-11T04:03:31.192Z,99469.76
2018-10-11T04:06:00.071Z,99473.80
2018-10-11T04:08:28.847Z,99476.50
2018-10-11T04:10:57.824Z,99469.09
2018-10-11T04:13:26.804Z,99456.37
2018-10-11T04:15:55.672Z,99459.52
2018-10-11T04:18:24.536Z,99458.85
2018-10-11T04:20:53.280Z,99458.50
2018-10-11T04:23:29.900Z,99457.31
2018-10-11T04:25:59.517Z,99466.75
2018-10-11T04:28:29.195Z,99465.08
2018-10-11T04:30:59.231Z,99461.28
2018-10-11T04:33:29.056Z,99459.62
2018-10-11T04:35:58.550Z,99453.88
2018-10-11T04:38:28.887Z,99457.50
2018-10-11T04:40:57.822Z,99453.94
2018-10-11T04:43:26.580Z,99452.22
2018-10-11T04:45:55.300Z,99449.70
2018-10-11T04:48:24.089Z,99451.38
2018-10-11T04:50:52.667Z,99446.97
2018-10-11T04:53:21.284Z,99447.45
2018-10-11T04:55:49.803Z,99453.53
2018-10-11T04:58:18.635Z,99451.29
2018-10-11T05:00:48.125Z,99450.36
2018-10-11T05:03:18.418Z,99451.23
2018-10-11T05:05:47.331Z,99445.77
2018-10-11T05:08:16.759Z,99450.48
2018-10-11T05:10:45.675Z,99450.75
2018-10-11T05:13:15.239Z,99454.59
2018-10-11T05:15:45.085Z,99461.02
2018-10-11T05:18:18.164Z,99456.87
2018-10-11T05:20:47.025Z,99457.06
2018-10-11T05:23:17.270Z,99455.50
2018-10-11T05:25:49.896Z,99442.88
2018-10-11T05:28:19.027Z,99457.64
2018-10-11T05:30:47.810Z,99450.30
2018-10-11T05:33:17.317Z,99456.73
2018-10-11T05:35:46.021Z,99462.36
2018-10-11T05:38:14.801Z,99464.82
2018-10-11T05:40:43.541Z,99461.19
2018-10-11T05:43:13.458Z,99468.20
2018-10-11T05:45:44.131Z,99477.72
2018-10-11T05:48:12.812Z,99473.70
2018-10-11T05:50:41.385Z,99476.16
2018-10-11T05:53:09.992Z,99478.16
2018-10-11T05:55:38.460Z,99475.52
2018-10-11T05:58:07.065Z,99472.24
2018-10-11T06:00:35.729Z,99475.63
2018-10-11T06:03:04.834Z,99481.66
2018-10-11T06:05:33.462Z,99485.43
2018-10-11T06:08:02.725Z,99495.04
2018-10-11T06:10:35.224Z,99504.25
2018-10-11T06:13:07.774Z,99509.55
2018-10-11T06:15:37.175Z,99510.25
2018-10-11T06:18:13.859Z,99502.11
2018-10-11T06:20:50.124Z,99511.64
2018-10-11T06:23:29.369Z,99511.02
2018-10-11T06:26:05.149Z,99517.78
2018-10-11T06:28:34.253Z,99517.58
2018-10-11T06:31:03.979Z,99517.77
2018-10-11T06:33:32.922Z,99512.16
2018-10-11T06:36:01.857Z,99511.30
2018-10-11T06:38:30.690Z,99514.53
2018-10-11T06:41:00.719Z,99505.36
2018-10-11T06:43:29.428Z,99504.05
2018-10-11T06:45:58.084Z,99508.78
2018-10-11T06:48:26.920Z,99521.44
2018-10-11T06:50:55.449Z,99525.17
2018-10-11T06:53:40.208Z,99537.42
2018-10-11T06:56:27.461Z,99541.77
2018-10-11T06:58:56.009Z,99543.17
2018-10-11T07:01:24.707Z,99537.29
2018-10-11T07:03:53.296Z,99543.95
2018-10-11T07:06:21.846Z,99541.38
2018-10-11T07:08:50.993Z,99543.31
2018-10-11T07:11:19.754Z,99546.84
2018-10-11T07:13:48.618Z,99554.05
2018-10-11T07:16:17.199Z,99548.00
2018-10-11T07:18:46.309Z,99555.60
2018-10-11T07:21:15.327Z,99560.14
2018-10-11T07:23:44.223Z,99579.70
2018-10-11T07:26:13.658Z,99579.56
2018-10-11T07:28:42.419Z,99580.22
2018-10-11T07:31:11.021Z,99585.72
2018-10-11T07:33:40.499Z,99585.08
2018-10-11T07:36:09.467Z,99590.41
2018-10-11T07:38:38.705Z,99576.27
2018-10-11T07:41:07.617Z,99576.88
2018-10-11T07:43:36.959Z,99569.36
2018-10-11T07:46:11.701Z,99581.00
2018-10-11T07:48:40.800Z,99586.53
2018-10-11T07:51:10.171Z,99602.45
2018-10-11T07:53:39.218Z,99612.48
2018-10-11T07:56:08.190Z,99613.45
2018-10-11T07:58:37.076Z,99616.10
2018-10-11T08:01:06.545Z,99612.81
2018-10-11T08:03:35.521Z,99606.61
2018-10-11T08:06:04.218Z,99605.73
2018-10-11T08:08:34.761Z,99625.70
2018-10-11T08:11:03.916Z,99615.88
2018-10-11T08:13:32.767Z,99607.58
2018-10-11T08:16:01.495Z,99618.26
2018-10-11T08:18:30.210Z,99625.86
2018-10-11T08:20:58.999Z,99627.06
2018-10-11T08:23:27.826Z,99614.99
2018-10-11T08:25:57.202Z,99616.11
2018-10-11T08:28:25.661Z,99620.19
2018-10-11T08:30:54.373Z,99614.88
2018-10-11T08:33:23.242Z,99622.50
2018-10-11T08:35:51.923Z,99622.78
2018-10-11T08:38:20.638Z,99624.64
2018-10-11T08:40:49.581Z,99629.84
2018-10-11T08:43:18.710Z,99638.09
2018-10-11T08:45:47.992Z,99628.31
2018-10-11T08:48:17.347Z,99631.97
2018-10-11T08:50:46.664Z,99629.90
2018-10-11T08:53:15.571Z,99630.89
2018-10-11T08:55:44.658Z,99634.27
2018-10-11T08:58:13.686Z,99630.05
2018-10-11T09:00:42.678Z,99635.77
2018-10-11T09:03:11.934Z,99624.43
2018-10-11T09:05:41.142Z,99625.39
2018-10-11T09:08:10.887Z,99622.16
2018-10-11T09:10:40.236Z,99614.91
2018-10-11T09:13:10.598Z,99621.16
2018-10-11T09:15:40.412Z,99623.58
2018-10-11T09:18:10.196Z,99626.34
2018-10-11T09:20:39.771Z,99628.33
2018-10-11T09:23:08.917Z,99622.81
2018-10-11T09:25:38.008Z,99620.83
2018-10-11T09:28:07.445Z,99620.73
2018-10-11T09:30:36.453Z,99622.68
2018-10-11T09:33:06.671Z,99625.32
2018-10-11T09:35:35.668Z,99620.75
2018-10-11T09:38:04.739Z,99619.97
2018-10-11T09:40:35.698Z,99621.64
2018-10-11T09:43:04.866Z,99626.54
2018-10-11T09:45:33.989Z,99613.26
2018-10-11T09:48:03.412Z,99618.03
2018-10-11T09:50:32.147Z,99613.48
2018-10-11T09:53:01.201Z,99612.42
2018-10-11T09:55:35.092Z,99613.23
2018-10-11T09:58:04.080Z,99609.20
2018-10-11T10:00:38.075Z,99609.63
2018-10-11T10:03:07.069Z,99610.98
2018-10-11T10:05:36.790Z,99613.70
2018-10-11T10:08:05.917Z,99606.26
2018-10-11T10:10:34.776Z,99600.30
2018-10-11T10:13:03.806Z,99604.56
2018-10-11T10:15:33.036Z,99604.50
2018-10-11T10:24:01.566Z,99604.69
2018-10-11T10:26:33.596Z,99605.81
2018-10-11T10:35:01.859Z,99602.51
2018-10-11T10:40:38.923Z,99588.27
2018-10-11T10:43:12.415Z,99580.08
2018-10-11T10:45:41.707Z,99580.77
2018-10-11T10:48:11.014Z,99581.78
2018-10-11T10:50:40.211Z,99578.11
2018-10-11T10:53:09.892Z,99580.67
2018-10-11T10:55:38.923Z,99579.84
2018-10-11T10:58:07.903Z,99572.28
2018-10-11T11:00:42.179Z,99569.23
2018-10-11T11:16:41.612Z,99551.40
2018-10-11T11:19:10.929Z,99549.13
2018-10-11T11:21:40.107Z,99548.96
2018-10-11T11:24:09.117Z,99546.61
2018-10-11T11:26:38.299Z,99543.57
2018-10-11T11:29:07.304Z,99548.16
2018-10-11T11:31:36.684Z,99537.78
2018-10-11T11:34:11.647Z,99538.96
2018-10-11T11:36:40.866Z,99538.45
2018-10-11T11:39:12.561Z,99535.11
2018-10-11T11:41:41.534Z,99530.50
2018-10-11T11:44:10.788Z,99529.81
2018-10-11T11:46:39.687Z,99535.82
2018-10-11T11:49:08.569Z,99538.34
2018-10-11T11:51:37.632Z,99576.64
2018-10-11T11:54:10.675Z,99532.28
2018-10-11T11:56:39.569Z,99533.03
2018-10-11T11:59:08.517Z,99531.13
2018-10-11T12:01:37.352Z,99532.38
2018-10-11T12:04:06.324Z,99526.77
2018-10-11T12:06:35.297Z,99528.92
2018-10-11T12:09:07.479Z,99530.27
2018-10-11T12:11:36.628Z,99624.39
2018-10-11T12:14:05.737Z,99526.72
2018-10-11T12:16:34.650Z,99529.77
2018-10-11T12:19:03.569Z,99524.36
2018-10-11T12:21:32.538Z,99523.05
2018-10-11T12:24:01.216Z,99524.38
2018-10-11T12:26:29.907Z,99517.94
2018-10-11T12:28:58.582Z,99513.37
2018-10-11T12:31:27.292Z,99508.77
2018-10-11T12:33:55.938Z,99515.63
2018-10-11T12:36:24.600Z,99515.08
2018-10-11T12:38:53.184Z,99514.80
2018-10-11T12:41:21.850Z,99521.14
2018-10-11T12:43:50.617Z,99518.22
2018-10-11T12:46:19.168Z,99524.52
2018-10-11T12:48:47.935Z,99524.08
2018-10-11T12:51:16.750Z,99520.20
2018-10-11T12:53:48.302Z,99515.58
2018-10-11T12:56:15.162Z,99520.68
2018-10-11T12:58:44.273Z,99516.34
2018-10-11T13:01:17.270Z,99519.64
2018-10-11T13:03:43.387Z,99519.68
2018-10-11T13:06:12.684Z,99517.33
2018-10-11T13:08:41.690Z,99530.64
2018-10-11T13:11:10.884Z,99532.71
2018-10-11T13:13:44.586Z,99538.70
2018-10-11T13:16:09.940Z,99547.28
2018-10-11T13:18:39.119Z,99541.27
2018-10-11T13:21:08.331Z,99547.05
2018-10-11T13:23:38.576Z,99549.56
2018-10-11T13:26:07.597Z,99542.33
2018-10-11T13:28:37.128Z,99546.06
2018-10-11T13:31:06.327Z,99542.95
2018-10-11T13:33:35.484Z,99546.48
2018-10-11T13:36:05.456Z,99546.06
2018-10-11T13:38:35.186Z,99542.95
2018-10-11T13:41:04.596Z,99538.27
2018-10-11T13:43:33.998Z,99527.13
2018-10-11T13:46:03.782Z,99547.63
2018-10-11T13:48:32.746Z,99537.73
2018-10-11T13:51:01.560Z,99547.60
2018-10-11T13:53:30.421Z,99534.61
2018-10-11T13:56:00.450Z,99538.52
2018-10-11T13:58:29.191Z,99548.55
2018-10-11T14:01:00.645Z,99530.67
2018-10-11T14:03:29.654Z,99530.64
2018-10-11T14:05:59.488Z,99529.80
2018-10-11T14:08:28.803Z,99531.62
2018-10-11T14:10:57.905Z,99529.89
2018-10-11T14:13:27.113Z,99521.10
2018-10-11T14:15:56.091Z,99525.27
2018-10-11T14:18:25.088Z,99531.16
2018-10-11T14:20:54.481Z,99528.50
2018-10-11T14:23:23.177Z,99534.91
2018-10-11T14:25:52.003Z,99529.86
2018-10-11T14:28:20.867Z,99529.02
2018-10-11T14:30:49.726Z,99529.19
2018-10-11T14:33:18.925Z,99523.70
2018-10-11T14:35:47.761Z,99535.83
2018-10-11T14:38:16.606Z,99528.52
2018-10-11T14:40:45.912Z,99528.54
2018-10-11T14:43:16.504Z,99529.39
2018-10-11T14:45:45.827Z,99520.73
2018-10-11T14:48:18.878Z,99522.07
2018-10-11T14:50:48.946Z,99519.27
2018-10-11T14:53:19.069Z,99512.20
2018-10-11T14:55:51.912Z,99509.65
2018-10-11T14:58:21.637Z,99510.63
2018-10-11T15:00:50.451Z,99513.19
2018-10-11T15:03:19.438Z,99512.97
2018-10-11T15:05:48.403Z,99517.09
2018-10-11T15:08:17.015Z,99510.86
2018-10-11T15:10:45.707Z,99529.66
2018-10-11T15:13:14.317Z,99514.88
2018-10-11T15:15:43.029Z,99508.31
2018-10-11T15:18:11.680Z,99511.25
2018-10-11T15:20:40.461Z,99506.73
2018-10-11T15:23:09.007Z,99500.47
2018-10-11T15:25:37.770Z,99499.50
2018-10-11T15:28:06.343Z,99505.26
2018-10-11T15:30:34.936Z,99496.84
2018-10-11T15:33:03.534Z,99497.83
2018-10-11T15:35:32.205Z,99504.65
2018-10-11T15:38:00.847Z,99507.41
2018-10-11T15:40:29.581Z,99506.89
2018-10-11T15:42:58.224Z,99503.00
2018-10-11T15:45:26.832Z,99506.77
2018-10-11T15:47:55.414Z,99502.58
2018-10-11T15:50:23.974Z,99506.85
2018-10-11T15:52:52.596Z,99513.07
2018-10-11T15:55:21.148Z,99511.73
2018-10-11T15:57:49.803Z,99506.32
2018-10-11T16:00:18.450Z,99508.16
2018-10-11T16:02:47.065Z,99512.30
2018-10-11T16:05:15.694Z,99503.15
2018-10-11T16:07:44.265Z,99504.34
2018-10-11T16:10:12.906Z,99500.72
2018-10-11T16:12:41.502Z,99501.66
2018-10-11T16:15:10.147Z,99502.52
2018-10-11T16:17:38.726Z,99510.92
2018-10-11T16:20:07.305Z,99505.50
2018-10-11T16:22:35.992Z,99509.62
2018-10-11T16:25:04.577Z,99511.68
2018-10-11T16:27:33.155Z,99514.70
2018-10-11T16:30:01.769Z,99508.48
2018-10-11T16:32:30.353Z,99510.53
2018-10-11T16:34:58.980Z,99514.80
2018-10-11T16:37:27.747Z,99511.59
2018-10-11T16:39:56.468Z,99485.52
2018-10-11T16:42:25.094Z,99516.98
2018-10-11T16:44:53.743Z,99524.26
2018-10-11T16:47:22.422Z,99528.08
2018-10-11T16:49:51.053Z,99528.51
2018-10-11T16:52:19.688Z,99533.33
2018-10-11T16:54:48.277Z,99531.95
2018-10-11T16:57:17.265Z,99532.28
2018-10-11T16:59:45.970Z,99531.00
2018-10-11T17:02:14.672Z,99536.06
2018-10-11T17:04:43.309Z,99536.86
2018-10-11T17:07:11.929Z,99536.17
2018-10-11T17:09:40.571Z,99549.40
2018-10-11T17:12:09.196Z,99548.70
2018-10-11T17:14:37.799Z,99548.65
2018-10-11T17:17:06.318Z,99550.84
2018-10-11T17:19:34.831Z,99559.67
2018-10-11T17:22:03.427Z,99566.77
2018-10-11T17:24:32.033Z,99566.70
2018-10-11T17:27:00.689Z,99565.90
2018-10-11T17:29:29.271Z,99571.27
2018-10-11T17:31:57.856Z,99577.39
2018-10-11T17:34:26.424Z,99583.55
2018-10-11T17:36:55.080Z,99591.49
2018-10-11T17:39:23.770Z,99582.91
2018-10-11T17:41:52.398Z,99582.67
2018-10-11T17:44:21.137Z,99581.61
2018-10-11T17:46:49.680Z,99586.75
2018-10-11T17:49:18.777Z,99581.33
2018-10-11T17:51:47.368Z,99584.05
2018-10-11T17:54:15.955Z,99594.16
2018-10-11T17:56:44.550Z,99594.54
2018-10-11T17:59:13.281Z,99595.70
2018-10-11T18:01:41.921Z,99593.23
2018-10-11T18:04:10.680Z,99596.95
2018-10-11T18:06:39.443Z,99599.91
2018-10-11T18:09:09.568Z,99609.93
2018-10-11T18:11:38.372Z,99616.02
2018-10-11T18:14:08.214Z,99619.94
2018-10-11T18:16:37.673Z,99618.80
2018-10-11T18:19:06.576Z,99622.91
2018-10-11T18:21:35.520Z,99623.91
2018-10-11T18:24:04.833Z,99618.85
2018-10-11T18:26:39.813Z,99619.71
2018-10-11T18:29:09.620Z,99609.02
2018-10-11T18:31:38.519Z,99609.38
2018-10-11T18:34:07.465Z,99615.87
2018-10-11T18:36:36.301Z,99619.19
2018-10-11T18:39:12.352Z,99621.19
2018-10-11T18:41:41.588Z,99614.80
2018-10-11T18:44:10.778Z,99612.09
2018-10-11T18:46:39.786Z,99622.92
2018-10-11T18:49:09.364Z,99626.54
2018-10-11T18:51:38.304Z,99624.30
2018-10-11T18:54:07.161Z,99223.70
2018-10-11T18:56:36.092Z,99629.06
2018-10-11T18:59:05.110Z,99622.44
2018-10-11T19:01:34.307Z,99624.80
2018-10-11T19:04:03.591Z,99439.35
2018-10-11T19:06:33.169Z,99635.30
2018-10-11T19:09:02.207Z,99633.17
2018-10-11T19:11:31.553Z,99639.27
2018-10-11T19:14:00.609Z,99660.35
2018-10-11T19:16:29.900Z,99635.14
2018-10-11T19:18:59.335Z,99636.17
2018-10-11T19:21:28.911Z,99644.16
2018-10-11T19:23:58.348Z,99646.91
2018-10-11T19:26:28.049Z,99647.97
2018-10-11T19:28:57.319Z,99644.13
2018-10-11T19:31:27.209Z,99650.09
2018-10-11T19:33:56.509Z,99652.94
2018-10-11T19:36:25.619Z,99655.86
2018-10-11T19:38:54.628Z,99655.17
2018-10-11T19:41:23.682Z,99654.97
2018-10-11T19:43:52.660Z,99659.98
2018-10-11T19:46:21.493Z,99670.33
2018-10-11T19:48:50.391Z,99668.16
2018-10-11T19:51:19.307Z,99668.41
2018-10-11T19:53:48.171Z,99577.58
2018-10-11T19:56:17.171Z,99657.75
2018-10-11T19:58:45.901Z,99652.25
2018-10-11T20:01:14.741Z,99654.47
2018-10-11T20:03:43.665Z,99652.32
2018-10-11T20:06:12.811Z,99660.86
2018-10-11T20:08:41.678Z,99528.20
2018-10-11T20:11:10.618Z,99662.95
2018-10-11T20:13:39.792Z,99654.41
2018-10-11T20:16:08.640Z,99683.38
2018-10-11T20:18:37.953Z,99672.41
2018-10-11T20:21:07.108Z,99675.77
2018-10-11T20:23:36.037Z,99666.08
2018-10-11T20:26:05.060Z,99674.38
2018-10-11T20:28:33.789Z,99683.14
2018-10-11T20:31:02.669Z,99684.83
2018-10-11T20:33:31.804Z,99675.33
2018-10-11T20:36:00.501Z,99678.32
2018-10-11T20:38:29.596Z,99675.77
2018-10-11T20:40:58.346Z,99526.95
2018-10-11T20:43:27.407Z,99679.14
2018-10-11T20:45:56.246Z,99676.41
2018-10-11T20:48:25.097Z,99716.94
2018-10-11T20:50:54.115Z,99677.68
2018-10-11T20:53:23.035Z,99677.23
2018-10-11T20:55:51.900Z,99672.78
2018-10-11T20:58:38.023Z,99789.41
2018-10-11T21:34:35.530Z,99680.41
2018-10-11T21:37:04.355Z,99680.96
2018-10-11T21:39:33.238Z,99680.47
2018-10-11T21:42:01.820Z,99679.53
2018-10-11T21:44:30.529Z,99686.73
2018-10-11T21:46:59.253Z,99673.92
2018-10-11T21:49:27.862Z,99674.16
2018-10-11T21:51:56.498Z,99685.27
2018-10-11T21:54:25.684Z,99670.63
2018-10-11T21:56:54.680Z,99672.45
2018-10-11T21:59:23.525Z,99661.70
2018-10-11T22:01:52.272Z,99664.85
2018-10-11T22:04:21.053Z,99658.34
2018-10-11T22:06:50.226Z,99658.48
2018-10-11T22:09:18.941Z,99661.25
2018-10-11T22:11:47.689Z,99661.00
2018-10-11T22:14:16.479Z,99657.42
2018-10-11T22:16:45.174Z,99655.40
2018-10-11T22:19:13.861Z,99703.28
2018-10-11T22:21:42.647Z,99672.27
2018-10-11T22:24:11.340Z,99662.36
2018-10-11T22:26:40.023Z,99659.14
2018-10-11T22:29:08.758Z,99670.34
2018-10-11T22:31:37.511Z,99664.45
2018-10-11T22:34:06.315Z,99669.46
2018-10-11T22:36:35.115Z,99671.84
2018-10-11T22:39:05.186Z,99674.63
2018-10-11T22:41:33.964Z,99671.97
2018-10-11T22:44:02.819Z,99188.32
2018-10-11T22:46:31.516Z,99674.63
2018-10-11T22:49:00.313Z,99685.99
2018-10-11T22:51:29.276Z,99689.04
2018-10-11T22:53:58.183Z,99693.03
2018-10-11T22:56:27.244Z,99701.08
2018-10-11T22:58:56.176Z,99709.93
2018-10-11T23:01:24.990Z,99711.33
2018-10-11T23:03:53.951Z,99719.50
2018-10-11T23:06:22.938Z,99731.34
2018-10-11T23:08:51.822Z,99747.23
2018-10-11T23:11:20.630Z,99731.34
2018-10-11T23:13:49.568Z,99736.43
2018-10-11T23:16:18.528Z,99730.08
2018-10-11T23:18:47.657Z,99745.09
2018-10-11T23:21:16.496Z,99743.56
2018-10-11T23:23:45.548Z,99745.97
2018-10-11T23:26:14.354Z,99757.61
2018-10-11T23:28:43.237Z,99744.70
2018-10-11T23:31:12.345Z,99757.52
2018-10-11T23:33:42.003Z,99748.30
2018-10-11T23:36:10.922Z,99763.55
2018-10-11T23:38:40.038Z,99762.05
2018-10-11T23:41:09.274Z,99766.66
2018-10-11T23:43:38.107Z,99772.69
2018-10-11T23:46:07.423Z,99780.28
2018-10-11T23:48:36.344Z,99767.66
2018-10-11T23:51:05.147Z,99768.31
2018-10-11T23:53:33.887Z,99776.45
2018-10-11T23:56:02.682Z,99777.30
2018-10-11T23:58:31.465Z,99780.44
